createdAt,value
2022-09-10T00:00:06.609Z,356
2022-09-10T00:01:15.381Z,351
2022-09-10T00:02:16.642Z,347
2022-09-10T00:03:15.262Z,349
2022-09-10T00:04:06.082Z,357
2022-09-10T00:05:15.544Z,352
2022-09-10T00:06:15.693Z,351
2022-09-10T00:07:07.488Z,352
2022-09-10T00:08:07.665Z,345
2022-09-10T00:09:14.787Z,335
2022-09-10T00:10:16.601Z,344
2022-09-10T00:11:15.901Z,340
2022-09-10T00:12:07.413Z,339
2022-09-10T00:13:07.392Z,344
2022-09-10T00:14:15.076Z,343
2022-09-10T00:16:07.839Z,342
2022-09-10T00:17:15.093Z,343
2022-09-10T00:18:15.092Z,345
2022-09-10T00:19:15.075Z,344
2022-09-10T00:20:16.370Z,341
2022-09-10T00:21:16.172Z,333
2022-09-10T00:22:15.789Z,339
2022-09-10T00:23:15.505Z,341
2022-09-10T00:24:15.185Z,340
2022-09-10T00:25:08.504Z,342
2022-09-10T00:26:15.847Z,337
2022-09-10T00:27:16.394Z,336
2022-09-10T00:28:16.095Z,340
2022-09-10T00:30:16.597Z,343
2022-09-10T00:31:07.569Z,338
2022-09-10T00:32:16.170Z,340
2022-09-10T00:33:15.180Z,346
2022-09-10T00:34:14.744Z,339
2022-09-10T00:35:16.220Z,337
2022-09-10T00:37:15.814Z,334
2022-09-10T00:38:15.617Z,331
2022-09-10T00:39:15.045Z,327
2022-09-10T00:40:14.790Z,329
2022-09-10T00:41:15.834Z,338
2022-09-10T00:42:06.880Z,340
2022-09-10T00:43:15.201Z,346
2022-09-10T00:44:15.791Z,334
2022-09-10T00:45:16.028Z,333
2022-09-10T00:46:06.928Z,342
2022-09-10T00:47:21.376Z,334
2022-09-10T00:48:15.064Z,340
2022-09-10T00:49:15.696Z,345
2022-09-10T00:50:07.359Z,340
2022-09-10T00:51:16.259Z,345
2022-09-10T00:52:15.987Z,348
2022-09-10T00:53:15.355Z,345
2022-09-10T00:54:15.011Z,334
2022-09-10T00:55:15.516Z,323
2022-09-10T00:56:15.795Z,334
2022-09-10T00:57:15.999Z,350
2022-09-10T00:58:14.925Z,355
2022-09-10T00:59:15.522Z,354
2022-09-10T01:00:16.152Z,346
2022-09-10T01:01:15.721Z,347
2022-09-10T01:02:16.502Z,341
2022-09-10T01:04:14.759Z,338
2022-09-10T01:05:16.147Z,336
2022-09-10T01:07:15.647Z,343
2022-09-10T01:08:15.443Z,337
2022-09-10T01:09:14.960Z,332
2022-09-10T01:10:16.207Z,331
2022-09-10T01:11:06.744Z,333
2022-09-10T01:12:15.909Z,335
2022-09-10T01:13:14.876Z,343
2022-09-10T01:14:15.459Z,345
2022-09-10T01:15:22.967Z,353
2022-09-10T01:16:15.150Z,351
2022-09-10T01:17:07.099Z,342
2022-09-10T01:18:07.117Z,337
2022-09-10T01:19:14.876Z,350
2022-09-10T01:20:15.822Z,344
2022-09-10T01:21:07.611Z,342
2022-09-10T01:22:07.434Z,343
2022-09-10T01:23:07.602Z,336
2022-09-10T01:24:15.221Z,335
2022-09-10T01:25:15.610Z,337
2022-09-10T01:26:16.129Z,344
2022-09-10T01:28:14.952Z,341
2022-09-10T01:29:15.355Z,335
2022-09-10T01:30:16.056Z,339
2022-09-10T01:31:07.229Z,335
2022-09-10T01:32:15.762Z,328
2022-09-10T01:33:15.742Z,329
2022-09-10T01:34:15.120Z,336
2022-09-10T01:35:15.676Z,345
2022-09-10T01:36:16.333Z,335
2022-09-10T01:37:07.701Z,351
2022-09-10T01:38:07.596Z,346
2022-09-10T01:39:07.209Z,345
2022-09-10T01:40:07.577Z,351
2022-09-10T01:41:07.935Z,349
2022-09-10T01:42:16.123Z,337
2022-09-10T01:43:15.684Z,325
2022-09-10T01:44:14.818Z,332
2022-09-10T01:45:16.417Z,328
2022-09-10T01:46:16.122Z,342
2022-09-10T01:48:15.502Z,340
2022-09-10T01:50:16.133Z,342
2022-09-10T01:51:16.200Z,347
2022-09-10T01:52:15.773Z,338
2022-09-10T01:53:15.901Z,342
2022-09-10T01:54:05.835Z,334
2022-09-10T01:55:07.815Z,331
2022-09-10T01:56:15.378Z,344
2022-09-10T01:57:16.454Z,350
2022-09-10T01:58:06.488Z,341
2022-09-10T01:59:15.244Z,329
2022-09-10T02:00:15.538Z,333
2022-09-10T02:01:15.890Z,343
2022-09-10T02:02:15.679Z,344
2022-09-10T02:03:16.607Z,335
2022-09-10T02:04:15.057Z,341
2022-09-10T02:05:15.515Z,353
2022-09-10T02:06:15.847Z,336
2022-09-10T02:07:16.118Z,334
2022-09-10T02:08:14.698Z,337
2022-09-10T02:09:15.423Z,331
2022-09-10T02:10:15.919Z,334
2022-09-10T02:11:15.764Z,330
2022-09-10T02:12:15.722Z,335
2022-09-10T02:13:06.623Z,327
2022-09-10T02:14:14.791Z,328
2022-09-10T02:15:15.063Z,331
2022-09-10T02:16:16.713Z,323
2022-09-10T02:17:07.525Z,322
2022-09-10T02:18:15.818Z,318
2022-09-10T02:19:14.814Z,332
2022-09-10T02:20:15.452Z,330
2022-09-10T02:21:15.957Z,336
2022-09-10T02:22:16.092Z,335
2022-09-10T02:23:16.550Z,342
2022-09-10T02:24:14.818Z,341
2022-09-10T02:25:16.227Z,335
2022-09-10T02:26:16.032Z,343
2022-09-10T02:27:16.251Z,341
2022-09-10T02:28:16.005Z,346
2022-09-10T02:29:06.141Z,349
2022-09-10T02:30:07.594Z,346
2022-09-10T02:31:16.610Z,339
2022-09-10T02:32:16.151Z,344
2022-09-10T02:33:14.929Z,355
2022-09-10T02:34:15.212Z,343
2022-09-10T02:35:15.564Z,350
2022-09-10T02:36:15.645Z,354
2022-09-10T02:37:16.378Z,349
2022-09-10T02:38:14.612Z,351
2022-09-10T02:39:15.689Z,358
2022-09-10T02:40:15.481Z,347
2022-09-10T02:41:15.331Z,339
2022-09-10T02:42:16.399Z,346
2022-09-10T02:43:15.325Z,349
2022-09-10T02:44:14.774Z,343
2022-09-10T02:45:16.415Z,346
2022-09-10T02:46:16.174Z,348
2022-09-10T02:47:07.071Z,355
2022-09-10T02:48:07.593Z,341
2022-09-10T02:49:14.981Z,327
2022-09-10T02:50:07.742Z,341
2022-09-10T02:51:15.471Z,339
2022-09-10T02:52:16.250Z,344
2022-09-10T02:53:14.803Z,336
2022-09-10T02:54:15.776Z,335
2022-09-10T02:55:16.373Z,353
2022-09-10T02:57:15.987Z,351
2022-09-10T02:58:06.615Z,347
2022-09-10T02:59:15.712Z,346
2022-09-10T03:00:15.994Z,345
2022-09-10T03:01:15.809Z,343
2022-09-10T03:02:07.440Z,346
2022-09-10T03:03:06.909Z,345
2022-09-10T03:05:16.397Z,356
2022-09-10T03:06:16.015Z,357
2022-09-10T03:07:16.436Z,346
2022-09-10T03:08:15.142Z,342
2022-09-10T03:09:14.913Z,333
2022-09-10T03:10:16.376Z,331
2022-09-10T03:11:15.886Z,338
2022-09-10T03:12:15.919Z,343
2022-09-10T03:13:15.467Z,353
2022-09-10T03:14:15.267Z,344
2022-09-10T03:15:15.780Z,328
2022-09-10T03:16:07.597Z,331
2022-09-10T03:17:08.016Z,335
2022-09-10T03:18:15.243Z,331
2022-09-10T03:19:15.710Z,340
2022-09-10T03:20:15.953Z,347
2022-09-10T03:21:15.686Z,350
2022-09-10T03:22:16.046Z,331
2022-09-10T03:23:15.165Z,333
2022-09-10T03:24:08.691Z,337
2022-09-10T03:25:15.312Z,333
2022-09-10T03:26:16.239Z,332
2022-09-10T03:27:15.869Z,321
2022-09-10T03:28:14.919Z,338
2022-09-10T03:29:15.368Z,343
2022-09-10T03:30:07.510Z,329
2022-09-10T03:31:16.109Z,317
2022-09-10T03:32:15.939Z,330
2022-09-10T03:33:15.644Z,343
2022-09-10T03:34:06.437Z,341
2022-09-10T03:35:16.101Z,340
2022-09-10T03:36:19.314Z,339
2022-09-10T03:37:15.846Z,333
2022-09-10T03:38:16.379Z,335
2022-09-10T03:39:14.914Z,336
2022-09-10T03:40:16.280Z,338
2022-09-10T03:41:16.106Z,333
2022-09-10T03:43:15.753Z,341
2022-09-10T03:44:14.880Z,342
2022-09-10T03:46:07.490Z,336
2022-09-10T03:47:16.616Z,337
2022-09-10T03:48:15.942Z,353
2022-09-10T03:49:15.356Z,347
2022-09-10T03:50:15.952Z,339
2022-09-10T03:51:15.743Z,333
2022-09-10T03:52:16.290Z,340
2022-09-10T03:53:07.211Z,327
2022-09-10T03:54:15.239Z,343
2022-09-10T03:55:22.096Z,337
2022-09-10T03:56:16.157Z,347
2022-09-10T03:57:16.014Z,358
2022-09-10T03:58:15.345Z,346
2022-09-10T03:59:15.458Z,338
2022-09-10T04:00:15.624Z,339
2022-09-10T04:01:16.565Z,346
2022-09-10T04:02:15.493Z,352
2022-09-10T04:03:16.814Z,343
2022-09-10T04:04:15.426Z,340
2022-09-10T04:05:15.315Z,346
2022-09-10T04:06:16.022Z,347
2022-09-10T04:07:15.870Z,344
2022-09-10T04:08:15.576Z,339
2022-09-10T04:09:15.138Z,344
2022-09-10T04:10:15.730Z,346
2022-09-10T04:11:16.185Z,344
2022-09-10T04:12:07.474Z,347
2022-09-10T04:13:15.337Z,356
2022-09-10T04:14:15.561Z,351
2022-09-10T04:15:16.021Z,340
2022-09-10T04:16:15.689Z,331
2022-09-10T04:17:07.673Z,334
2022-09-10T04:18:16.214Z,344
2022-09-10T04:19:15.063Z,355
2022-09-10T04:20:15.183Z,348
2022-09-10T04:21:16.095Z,353
2022-09-10T04:22:15.311Z,352
2022-09-10T04:23:06.355Z,351
2022-09-10T04:24:06.053Z,333
2022-09-10T04:25:15.718Z,350
2022-09-10T04:27:16.429Z,349
2022-09-10T04:28:15.109Z,339
2022-09-10T04:29:06.149Z,340
2022-09-10T04:30:15.538Z,336
2022-09-10T04:31:16.328Z,351
2022-09-10T04:32:15.385Z,344
2022-09-10T04:33:06.412Z,334
2022-09-10T04:34:14.695Z,335
2022-09-10T04:35:16.326Z,333
2022-09-10T04:36:07.475Z,338
2022-09-10T04:37:19.235Z,337
2022-09-10T04:38:07.667Z,338
2022-09-10T04:39:15.286Z,341
2022-09-10T04:40:06.666Z,348
2022-09-10T04:41:15.936Z,340
2022-09-10T04:42:15.175Z,342
2022-09-10T04:43:07.382Z,344
2022-09-10T04:44:14.730Z,346
2022-09-10T04:45:16.105Z,338
2022-09-10T04:46:14.926Z,344
2022-09-10T04:47:16.160Z,350
2022-09-10T04:48:07.298Z,345
2022-09-10T04:49:15.050Z,338
2022-09-10T04:50:14.885Z,341
2022-09-10T04:52:15.643Z,346
2022-09-10T04:53:15.272Z,347
2022-09-10T04:54:15.069Z,338
2022-09-10T04:55:16.624Z,332
2022-09-10T04:56:07.057Z,330
2022-09-10T04:57:16.236Z,349
2022-09-10T04:58:15.321Z,343
2022-09-10T04:59:14.421Z,336
2022-09-10T05:00:07.815Z,333
2022-09-10T05:01:15.221Z,338
2022-09-10T05:02:15.670Z,328
2022-09-10T05:03:14.971Z,337
2022-09-10T05:04:15.422Z,344
2022-09-10T05:05:15.740Z,346
2022-09-10T05:06:15.829Z,339
2022-09-10T05:07:16.553Z,338
2022-09-10T05:08:15.099Z,343
2022-09-10T05:09:14.913Z,344
2022-09-10T05:10:16.199Z,351
2022-09-10T05:11:15.735Z,357
2022-09-10T05:12:15.352Z,351
2022-09-10T05:13:15.299Z,343
2022-09-10T05:15:16.109Z,338
2022-09-10T05:16:07.520Z,336
2022-09-10T05:17:16.238Z,346
2022-09-10T05:18:15.577Z,351
2022-09-10T05:19:15.471Z,353
2022-09-10T05:20:15.905Z,346
2022-09-10T05:21:16.219Z,342
2022-09-10T05:23:15.220Z,348
2022-09-10T05:24:15.320Z,349
2022-09-10T05:25:15.919Z,355
2022-09-10T05:26:08.264Z,353
2022-09-10T05:27:15.752Z,352
2022-09-10T05:28:16.299Z,349
2022-09-10T05:29:15.425Z,355
2022-09-10T05:30:15.017Z,353
2022-09-10T05:31:16.511Z,347
2022-09-10T05:32:16.064Z,343
2022-09-10T05:33:15.601Z,354
2022-09-10T05:34:15.246Z,348
2022-09-10T05:35:15.689Z,351
2022-09-10T05:36:15.658Z,355
2022-09-10T05:37:08.068Z,356
2022-09-10T05:38:16.599Z,353
2022-09-10T05:39:15.515Z,360
2022-09-10T05:40:15.575Z,351
2022-09-10T05:41:16.644Z,349
2022-09-10T05:42:07.468Z,359
2022-09-10T05:43:16.379Z,355
2022-09-10T05:44:15.271Z,354
2022-09-10T05:45:16.383Z,349
2022-09-10T05:46:15.958Z,340
2022-09-10T05:47:16.029Z,338
2022-09-10T05:48:15.554Z,337
2022-09-10T05:49:06.085Z,335
2022-09-10T05:50:15.984Z,345
2022-09-10T05:51:07.316Z,352
2022-09-10T05:52:15.902Z,359
2022-09-10T05:53:15.988Z,358
2022-09-10T05:54:15.419Z,352
2022-09-10T05:55:15.765Z,342
2022-09-10T05:57:16.310Z,347
2022-09-10T05:58:14.963Z,349
2022-09-10T05:59:15.719Z,345
2022-09-10T06:00:16.297Z,355
2022-09-10T06:01:07.246Z,347
2022-09-10T06:02:17.971Z,335
2022-09-10T06:03:15.975Z,346
2022-09-10T06:04:15.461Z,354
2022-09-10T06:05:15.932Z,360
2022-09-10T06:06:16.586Z,355
2022-09-10T06:07:16.300Z,346
2022-09-10T06:08:15.228Z,352
2022-09-10T06:09:06.969Z,340
2022-09-10T06:10:15.362Z,346
2022-09-10T06:11:07.772Z,343
2022-09-10T06:12:15.281Z,333
2022-09-10T06:13:15.520Z,341
2022-09-10T06:14:15.032Z,347
2022-09-10T06:16:15.515Z,351
2022-09-10T06:17:07.022Z,347
2022-09-10T06:18:15.152Z,342
2022-09-10T06:19:06.822Z,335
2022-09-10T06:20:07.077Z,338
2022-09-10T06:21:16.111Z,351
2022-09-10T06:22:15.625Z,352
2022-09-10T06:23:15.824Z,343
2022-09-10T06:24:15.420Z,332
2022-09-10T06:26:16.256Z,337
2022-09-10T06:27:16.125Z,341
2022-09-10T06:28:15.128Z,333
2022-09-10T06:30:06.776Z,345
2022-09-10T06:31:15.939Z,337
2022-09-10T06:32:15.349Z,349
2022-09-10T06:33:15.669Z,346
2022-09-10T06:34:14.952Z,343
2022-09-10T06:35:16.609Z,344
2022-09-10T06:36:16.463Z,342
2022-09-10T06:37:15.875Z,336
2022-09-10T06:38:15.592Z,334
2022-09-10T06:39:15.207Z,341
2022-09-10T06:40:15.051Z,336
2022-09-10T06:41:16.686Z,331
2022-09-10T06:42:07.988Z,344
2022-09-10T06:43:16.631Z,338
2022-09-10T06:44:15.054Z,334
2022-09-10T06:45:15.573Z,340
2022-09-10T06:47:28.325Z,347
2022-09-10T06:48:45.661Z,341
2022-09-10T06:48:50.383Z,342
2022-09-10T06:49:14.792Z,338
2022-09-10T06:50:16.181Z,342
2022-09-10T06:51:15.838Z,344
2022-09-10T06:52:16.336Z,336
2022-09-10T06:53:07.015Z,331
2022-09-10T06:54:15.649Z,332
2022-09-10T06:55:16.126Z,330
2022-09-10T06:56:07.170Z,335
2022-09-10T06:57:15.938Z,336
2022-09-10T06:59:15.134Z,341
2022-09-10T07:00:07.325Z,335
2022-09-10T07:01:16.873Z,336
2022-09-10T07:03:15.897Z,339
2022-09-10T07:04:14.852Z,343
2022-09-10T07:05:16.605Z,348
2022-09-10T07:06:16.304Z,346
2022-09-10T07:07:15.889Z,348
2022-09-10T07:08:15.450Z,344
2022-09-10T07:09:15.465Z,350
2022-09-10T07:10:15.663Z,345
2022-09-10T07:11:07.959Z,338
2022-09-10T07:12:07.175Z,337
2022-09-10T07:14:06.080Z,341
2022-09-10T07:15:15.939Z,346
2022-09-10T07:16:16.226Z,351
2022-09-10T07:17:08.025Z,344
2022-09-10T07:18:07.719Z,349
2022-09-10T07:19:15.445Z,346
2022-09-10T07:20:15.761Z,348
2022-09-10T07:21:16.608Z,354
2022-09-10T07:22:07.866Z,341
2022-09-10T07:23:11.088Z,340
2022-09-10T07:24:15.731Z,344
2022-09-10T07:25:15.999Z,348
2022-09-10T07:26:16.099Z,350
2022-09-10T07:27:16.512Z,344
2022-09-10T07:28:14.988Z,343
2022-09-10T07:30:15.764Z,323
2022-09-10T07:31:16.871Z,331
2022-09-10T07:33:06.907Z,333
2022-09-10T07:34:15.053Z,339
2022-09-10T07:35:15.715Z,349
2022-09-10T07:36:16.426Z,348
2022-09-10T07:37:16.425Z,350
2022-09-10T07:38:16.016Z,341
2022-09-10T07:39:15.601Z,336
2022-09-10T07:40:15.821Z,342
2022-09-10T07:41:15.782Z,345
2022-09-10T07:42:16.353Z,346
2022-09-10T07:43:15.468Z,332
2022-09-10T07:44:14.585Z,336
2022-09-10T07:45:16.310Z,343
2022-09-10T07:46:07.141Z,340
2022-09-10T07:47:16.269Z,334
2022-09-10T07:48:15.188Z,346
2022-09-10T07:49:15.641Z,342
2022-09-10T07:50:15.345Z,348
2022-09-10T07:51:15.769Z,350
2022-09-10T07:52:16.223Z,354
2022-09-10T07:53:07.342Z,356
2022-09-10T07:54:15.392Z,351
2022-09-10T07:55:15.637Z,341
2022-09-10T07:56:16.335Z,333
2022-09-10T07:57:16.274Z,329
2022-09-10T07:58:14.858Z,333
2022-09-10T07:59:15.305Z,326
2022-09-10T08:00:15.167Z,327
2022-09-10T08:01:16.143Z,331
2022-09-10T08:02:15.846Z,327
2022-09-10T08:03:15.799Z,330
2022-09-10T08:04:15.064Z,331
2022-09-10T08:05:07.207Z,334
2022-09-10T08:06:16.306Z,328
2022-09-10T08:08:15.323Z,333
2022-09-10T08:10:07.525Z,340
2022-09-10T08:11:16.457Z,349
2022-09-10T08:12:15.851Z,343
2022-09-10T08:13:14.839Z,335
2022-09-10T08:14:15.258Z,341
2022-09-10T08:15:07.309Z,336
2022-09-10T08:16:16.253Z,344
2022-09-10T08:17:07.458Z,333
2022-09-10T08:18:15.296Z,332
2022-09-10T08:19:15.627Z,338
2022-09-10T08:20:15.892Z,335
2022-09-10T08:21:15.634Z,344
2022-09-10T08:22:17.901Z,342
2022-09-10T08:23:15.781Z,334
2022-09-10T08:24:06.450Z,345
2022-09-10T08:25:15.749Z,336
2022-09-10T08:26:15.945Z,333
2022-09-10T08:27:16.022Z,327
2022-09-10T08:28:16.472Z,318
2022-09-10T08:29:14.971Z,308
2022-09-10T08:30:16.671Z,314
2022-09-10T08:31:16.444Z,324
2022-09-10T08:32:07.003Z,333
2022-09-10T08:33:16.262Z,341
2022-09-10T08:34:14.674Z,339
2022-09-10T08:35:07.495Z,318
2022-09-10T08:36:16.560Z,327
2022-09-10T08:37:16.251Z,337
2022-09-10T08:38:15.706Z,339
2022-09-10T08:39:15.710Z,330
2022-09-10T08:40:15.778Z,314
2022-09-10T08:41:15.827Z,325
2022-09-10T08:42:16.087Z,318
2022-09-10T08:43:15.151Z,319
2022-09-10T08:44:15.243Z,307
2022-09-10T08:45:06.993Z,312
2022-09-10T08:46:07.203Z,318
2022-09-10T08:47:15.990Z,319
2022-09-10T08:48:07.331Z,326
2022-09-10T08:49:15.066Z,332
2022-09-10T08:50:07.407Z,333
2022-09-10T08:51:16.244Z,338
2022-09-10T08:52:16.248Z,337
2022-09-10T08:53:14.772Z,335
2022-09-10T08:55:15.841Z,332
2022-09-10T08:56:07.328Z,329
2022-09-10T08:57:15.960Z,332
2022-09-10T08:58:06.382Z,333
2022-09-10T08:59:14.906Z,340
2022-09-10T09:00:16.734Z,347
2022-09-10T09:01:07.832Z,336
2022-09-10T09:02:31.594Z,330
2022-09-10T09:03:07.215Z,345
2022-09-10T09:04:15.444Z,340
2022-09-10T09:06:16.384Z,334
2022-09-10T09:07:16.243Z,326
2022-09-10T09:08:06.495Z,331
2022-09-10T09:09:17.013Z,337
2022-09-10T09:10:15.209Z,338
2022-09-10T09:11:15.757Z,339
2022-09-10T09:12:15.569Z,336
2022-09-10T09:13:06.790Z,333
2022-09-10T09:14:14.412Z,324
2022-09-10T09:15:09.103Z,336
2022-09-10T09:16:15.611Z,339
2022-09-10T09:17:07.794Z,338
2022-09-10T09:18:15.413Z,329
2022-09-10T09:19:14.973Z,335
2022-09-10T09:20:15.030Z,347
2022-09-10T09:21:16.538Z,345
2022-09-10T09:23:07.406Z,336
2022-09-10T09:24:17.518Z,327
2022-09-10T09:25:16.104Z,330
2022-09-10T09:26:16.221Z,337
2022-09-10T09:27:15.786Z,336
2022-09-10T09:28:15.336Z,328
2022-09-10T09:29:15.240Z,334
2022-09-10T09:30:15.083Z,346
2022-09-10T09:31:09.607Z,343
2022-09-10T09:32:15.408Z,335
2022-09-10T09:33:08.013Z,330
2022-09-10T09:34:14.214Z,338
2022-09-10T09:35:16.583Z,342
2022-09-10T09:36:15.484Z,330
2022-09-10T09:37:15.856Z,352
2022-09-10T09:38:06.421Z,351
2022-09-10T09:39:06.151Z,332
2022-09-10T09:40:15.636Z,321
2022-09-10T09:41:08.056Z,328
2022-09-10T09:42:15.737Z,333
2022-09-10T09:43:07.432Z,335
2022-09-10T09:44:14.701Z,322
2022-09-10T09:45:07.603Z,321
2022-09-10T09:46:16.117Z,323
2022-09-10T09:47:16.087Z,315
2022-09-10T09:48:15.107Z,327
2022-09-10T09:49:15.602Z,334
2022-09-10T09:50:15.993Z,338
2022-09-10T09:51:15.864Z,332
2022-09-10T09:53:15.155Z,330
2022-09-10T09:55:13.275Z,350
2022-09-10T09:55:18.417Z,342
2022-09-10T09:56:15.616Z,334
2022-09-10T09:57:15.811Z,325
2022-09-10T09:58:07.058Z,335
2022-09-10T09:59:15.608Z,349
2022-09-10T10:00:16.037Z,346
2022-09-10T10:01:16.080Z,345
2022-09-10T10:02:15.876Z,349
2022-09-10T10:03:16.511Z,342
2022-09-10T10:04:15.050Z,343
2022-09-10T10:05:15.747Z,329
2022-09-10T10:08:07.279Z,338
2022-09-10T10:09:06.800Z,341
2022-09-10T10:10:15.526Z,346
2022-09-10T10:11:16.232Z,342
2022-09-10T10:12:15.735Z,338
2022-09-10T10:13:07.389Z,330
2022-09-10T10:14:14.845Z,332
2022-09-10T10:15:16.434Z,331
2022-09-10T10:16:07.270Z,333
2022-09-10T10:17:07.708Z,330
2022-09-10T10:18:07.807Z,321
2022-09-10T10:19:15.312Z,330
2022-09-10T10:20:15.560Z,343
2022-09-10T10:21:16.686Z,333
2022-09-10T10:22:15.860Z,325
2022-09-10T10:23:15.630Z,326
2022-09-10T10:24:15.506Z,332
2022-09-10T10:25:16.480Z,335
2022-09-10T10:26:15.298Z,331
2022-09-10T10:27:08.091Z,338
2022-09-10T10:28:17.106Z,337
2022-09-10T10:29:06.815Z,342
2022-09-10T10:30:16.489Z,334
2022-09-10T10:31:07.711Z,333
2022-09-10T10:33:15.096Z,328
2022-09-10T10:35:16.077Z,324
2022-09-10T10:36:16.056Z,330
2022-09-10T10:37:16.382Z,335
2022-09-10T10:38:16.147Z,347
2022-09-10T10:39:14.888Z,348
2022-09-10T10:41:08.015Z,355
2022-09-10T10:42:16.123Z,344
2022-09-10T10:43:16.200Z,339
2022-09-10T10:44:15.109Z,345
2022-09-10T10:45:16.499Z,342
2022-09-10T10:46:16.495Z,331
2022-09-10T10:47:16.027Z,338
2022-09-10T10:48:16.601Z,329
2022-09-10T10:49:15.450Z,331
2022-09-10T10:50:15.428Z,333
2022-09-10T10:51:16.172Z,332
2022-09-10T10:52:15.983Z,331
2022-09-10T10:53:15.767Z,329
2022-09-10T10:54:06.451Z,321
2022-09-10T10:55:16.368Z,326
2022-09-10T10:56:07.211Z,329
2022-09-10T10:57:16.111Z,330
2022-09-10T10:59:15.202Z,329
2022-09-10T11:00:15.484Z,340
2022-09-10T11:01:16.292Z,342
2022-09-10T11:02:16.490Z,334
2022-09-10T11:03:14.676Z,328
2022-09-10T11:06:16.063Z,316
2022-09-10T11:07:16.013Z,320
2022-09-10T11:08:15.829Z,317
2022-09-10T11:09:14.760Z,323
2022-09-10T11:10:16.714Z,333
2022-09-10T11:11:16.028Z,341
2022-09-10T11:12:15.762Z,334
2022-09-10T11:13:15.955Z,323
2022-09-10T11:14:15.535Z,314
2022-09-10T11:15:15.835Z,322
2022-09-10T11:16:16.378Z,341
2022-09-10T11:17:07.655Z,346
2022-09-10T11:18:15.555Z,347
2022-09-10T11:19:15.363Z,342
2022-09-10T11:20:28.903Z,330
2022-09-10T11:22:16.150Z,336
2022-09-10T11:24:17.107Z,325
2022-09-10T11:25:15.927Z,328
2022-09-10T11:26:16.287Z,331
2022-09-10T11:27:16.118Z,327
2022-09-10T11:28:07.016Z,334
2022-09-10T11:29:15.135Z,321
2022-09-10T11:30:16.562Z,340
2022-09-10T11:31:16.066Z,342
2022-09-10T11:32:15.776Z,335
2022-09-10T11:33:08.115Z,327
2022-09-10T11:34:06.245Z,337
2022-09-10T11:35:15.631Z,340
2022-09-10T11:36:16.172Z,336
2022-09-10T11:37:15.893Z,334
2022-09-10T11:38:15.052Z,331
2022-09-10T11:39:15.304Z,330
2022-09-10T11:40:15.660Z,344
2022-09-10T11:41:15.621Z,333
2022-09-10T11:42:16.343Z,318
2022-09-10T11:43:16.100Z,327
2022-09-10T11:44:14.988Z,321
2022-09-10T11:45:16.300Z,316
2022-09-10T11:47:16.383Z,321
2022-09-10T11:48:14.871Z,338
2022-09-10T11:49:14.652Z,327
2022-09-10T11:50:07.803Z,326
2022-09-10T11:51:15.548Z,334
2022-09-10T11:52:16.649Z,339
2022-09-10T11:53:16.184Z,331
2022-09-10T11:54:07.099Z,328
2022-09-10T11:55:15.931Z,327
2022-09-10T11:56:07.399Z,320
2022-09-10T11:57:16.305Z,332
2022-09-10T11:58:14.803Z,323
2022-09-10T11:59:15.905Z,316
2022-09-10T12:00:16.120Z,330
2022-09-10T12:01:15.549Z,325
2022-09-10T12:02:16.412Z,326
2022-09-10T12:03:15.336Z,335
2022-09-10T12:04:15.842Z,330
2022-09-10T12:05:07.611Z,339
2022-09-10T12:07:16.114Z,345
2022-09-10T12:09:15.825Z,344
2022-09-10T12:10:18.776Z,339
2022-09-10T12:11:15.641Z,342
2022-09-10T12:12:16.444Z,336
2022-09-10T12:13:15.423Z,331
2022-09-10T12:14:14.697Z,324
2022-09-10T12:15:16.048Z,323
2022-09-10T12:16:07.516Z,330
2022-09-10T12:17:07.897Z,339
2022-09-10T12:18:15.749Z,336
2022-09-10T12:19:15.362Z,331
2022-09-10T12:21:16.477Z,343
2022-09-10T12:22:07.795Z,338
2022-09-10T12:23:16.395Z,326
2022-09-10T12:24:14.901Z,333
2022-09-10T12:25:21.838Z,341
2022-09-10T12:26:21.395Z,338
2022-09-10T12:27:07.600Z,333
2022-09-10T12:28:15.205Z,332
2022-09-10T12:29:14.971Z,344
2022-09-10T12:30:16.005Z,338
2022-09-10T12:31:16.193Z,337
2022-09-10T12:32:15.786Z,332
2022-09-10T12:33:16.388Z,331
2022-09-10T12:34:14.623Z,339
2022-09-10T12:35:21.909Z,351
2022-09-10T12:36:15.920Z,336
2022-09-10T12:37:15.816Z,330
2022-09-10T12:38:14.936Z,339
2022-09-10T12:39:15.416Z,332
2022-09-10T12:40:17.413Z,333
2022-09-10T12:41:07.865Z,322
2022-09-10T12:42:07.488Z,327
2022-09-10T12:43:15.042Z,338
2022-09-10T12:44:15.430Z,333
2022-09-10T12:45:16.168Z,329
2022-09-10T12:46:15.986Z,331
2022-09-10T12:47:16.549Z,340
2022-09-10T12:48:14.881Z,338
2022-09-10T12:49:20.071Z,335
2022-09-10T12:50:16.459Z,333
2022-09-10T12:51:16.032Z,342
2022-09-10T12:52:15.417Z,345
2022-09-10T12:53:15.717Z,331
2022-09-10T12:54:15.288Z,329
2022-09-10T12:55:15.576Z,335
2022-09-10T12:56:19.194Z,327
2022-09-10T12:57:16.166Z,326
2022-09-10T12:58:06.071Z,329
2022-09-10T12:59:14.906Z,327
2022-09-10T13:00:16.418Z,323
2022-09-10T13:01:16.174Z,328
2022-09-10T13:02:15.973Z,317
2022-09-10T13:03:20.810Z,323
2022-09-10T13:04:15.136Z,317
2022-09-10T13:05:20.649Z,320
2022-09-10T13:06:16.195Z,335
2022-09-10T13:07:16.015Z,338
2022-09-10T13:08:15.097Z,326
2022-09-10T13:09:15.261Z,329
2022-09-10T13:10:21.043Z,336
2022-09-10T13:11:15.883Z,341
2022-09-10T13:12:15.975Z,339
2022-09-10T13:13:06.529Z,319
2022-09-10T13:14:15.229Z,316
2022-09-10T13:15:15.392Z,312
2022-09-10T13:16:07.599Z,324
2022-09-10T13:17:16.744Z,327
2022-09-10T13:18:16.443Z,337
2022-09-10T13:19:15.062Z,340
2022-09-10T13:20:16.465Z,338
2022-09-10T13:21:16.496Z,332
2022-09-10T13:22:16.002Z,331
2022-09-10T13:23:15.658Z,333
2022-09-10T13:24:15.008Z,322
2022-09-10T13:25:06.664Z,320
2022-09-10T13:27:15.768Z,321
2022-09-10T13:28:15.514Z,331
2022-09-10T13:29:06.483Z,341
2022-09-10T13:30:16.023Z,339
2022-09-10T13:31:15.751Z,331
2022-09-10T13:32:08.172Z,329
2022-09-10T13:33:17.735Z,322
2022-09-10T13:34:15.271Z,325
2022-09-10T13:35:07.501Z,324
2022-09-10T13:36:15.940Z,333
2022-09-10T13:37:16.186Z,334
2022-09-10T13:38:06.692Z,333
2022-09-10T13:39:14.684Z,336
2022-09-10T13:40:16.157Z,338
2022-09-10T13:41:15.465Z,335
2022-09-10T13:42:16.549Z,340
2022-09-10T13:43:15.404Z,337
2022-09-10T13:44:14.762Z,333
2022-09-10T13:45:16.264Z,337
2022-09-10T13:46:15.695Z,336
2022-09-10T13:47:08.181Z,337
2022-09-10T13:48:14.478Z,341
2022-09-10T13:50:15.099Z,344
2022-09-10T13:51:15.643Z,338
2022-09-10T13:52:15.354Z,339
2022-09-10T13:53:15.131Z,341
2022-09-10T13:54:14.827Z,340
2022-09-10T13:56:17.909Z,333
2022-09-10T13:57:15.405Z,331
2022-09-10T13:58:15.397Z,327
2022-09-10T13:59:15.191Z,332
2022-09-10T14:00:06.829Z,325
2022-09-10T14:01:16.264Z,338
2022-09-10T14:03:15.590Z,329
2022-09-10T14:04:15.116Z,322
2022-09-10T14:05:06.936Z,314
2022-09-10T14:06:15.236Z,318
2022-09-10T14:07:16.462Z,330
2022-09-10T14:08:15.255Z,333
2022-09-10T14:10:16.795Z,338
2022-09-10T14:12:15.815Z,327
2022-09-10T14:13:15.644Z,332
2022-09-10T14:14:15.380Z,337
2022-09-10T14:15:07.234Z,330
2022-09-10T14:16:15.782Z,334
2022-09-10T14:17:16.548Z,339
2022-09-10T14:18:15.208Z,337
2022-09-10T14:19:15.148Z,328
2022-09-10T14:20:16.047Z,330
2022-09-10T14:21:16.345Z,344
2022-09-10T14:22:15.954Z,342
2022-09-10T14:23:16.326Z,333
2022-09-10T14:24:14.843Z,327
2022-09-10T14:25:07.793Z,333
2022-09-10T14:26:07.432Z,337
2022-09-10T14:27:16.335Z,335
2022-09-10T14:28:15.977Z,331
2022-09-10T14:29:15.484Z,325
2022-09-10T14:30:15.865Z,333
2022-09-10T14:31:16.431Z,340
2022-09-10T14:32:16.251Z,342
2022-09-10T14:33:14.996Z,340
2022-09-10T14:34:15.761Z,334
2022-09-10T14:35:16.095Z,339
2022-09-10T14:36:07.500Z,338
2022-09-10T14:37:16.007Z,328